sensor_id;sensor_type;location;lat;lon;timestamp;P1;durP1;ratioP1;P2;durP2;ratioP2
20597;SDS011;10457;48.770;11.446;2023-04-07T00:03:53;23.20;;;15.47;;
20597;SDS011;10457;48.770;11.446;2023-04-07T00:09:15;23.20;;;15.07;;
20597;SDS011;10457;48.770;11.446;2023-04-07T00:14:36;23.90;;;14.17;;
20597;SDS011;10457;48.770;11.446;2023-04-07T00:19:59;17.27;;;12.27;;
20597;SDS011;10457;48.770;11.446;2023-04-07T00:25:21;19.53;;;12.07;;
20597;SDS011;10457;48.770;11.446;2023-04-07T00:30:42;19.43;;;11.90;;
20597;SDS011;10457;48.770;11.446;2023-04-07T00:36:05;17.03;;;10.37;;
20597;SDS011;10457;48.770;11.446;2023-04-07T00:41:27;15.57;;;10.73;;
20597;SDS011;10457;48.770;11.446;2023-04-07T00:46:48;15.57;;;11.23;;
20597;SDS011;10457;48.770;11.446;2023-04-07T00:52:11;17.43;;;11.87;;
20597;SDS011;10457;48.770;11.446;2023-04-07T00:57:35;22.23;;;14.83;;
20597;SDS011;10457;48.770;11.446;2023-04-07T01:02:57;25.03;;;15.97;;
20597;SDS011;10457;48.770;11.446;2023-04-07T01:08:28;26.33;;;17.00;;
20597;SDS011;10457;48.770;11.446;2023-04-07T01:13:57;30.93;;;17.27;;
20597;SDS011;10457;48.770;11.446;2023-04-07T01:19:31;28.53;;;16.60;;
20597;SDS011;10457;48.770;11.446;2023-04-07T01:25:21;23.67;;;16.80;;
20597;SDS011;10457;48.770;11.446;2023-04-07T01:30:50;31.00;;;19.13;;
20597;SDS011;10457;48.770;11.446;2023-04-07T01:36:16;27.47;;;17.93;;
20597;SDS011;10457;48.770;11.446;2023-04-07T01:41:38;29.97;;;18.17;;
20597;SDS011;10457;48.770;11.446;2023-04-07T01:47:03;34.53;;;17.33;;
20597;SDS011;10457;48.770;11.446;2023-04-07T01:52:26;30.90;;;16.03;;
20597;SDS011;10457;48.770;11.446;2023-04-07T01:57:48;23.47;;;14.53;;
20597;SDS011;10457;48.770;11.446;2023-04-07T02:03:14;22.47;;;14.37;;
20597;SDS011;10457;48.770;11.446;2023-04-07T02:08:46;21.13;;;13.07;;
20597;SDS011;10457;48.770;11.446;2023-04-07T02:14:22;22.97;;;13.30;;
20597;SDS011;10457;48.770;11.446;2023-04-07T02:19:55;26.30;;;14.37;;
20597;SDS011;10457;48.770;11.446;2023-04-07T02:25:19;16.80;;;13.97;;
20597;SDS011;10457;48.770;11.446;2023-04-07T02:30:42;20.47;;;13.93;;
20597;SDS011;10457;48.770;11.446;2023-04-07T02:36:05;27.30;;;16.37;;
20597;SDS011;10457;48.770;11.446;2023-04-07T02:41:26;18.73;;;14.03;;
20597;SDS011;10457;48.770;11.446;2023-04-07T02:46:48;24.07;;;14.90;;
20597;SDS011;10457;48.770;11.446;2023-04-07T02:52:11;21.40;;;14.17;;
20597;SDS011;10457;48.770;11.446;2023-04-07T02:57:32;20.30;;;14.27;;
20597;SDS011;10457;48.770;11.446;2023-04-07T03:02:57;22.50;;;14.73;;
20597;SDS011;10457;48.770;11.446;2023-04-07T03:08:22;26.43;;;15.90;;
20597;SDS011;10457;48.770;11.446;2023-04-07T03:13:44;25.60;;;16.03;;
20597;SDS011;10457;48.770;11.446;2023-04-07T03:19:07;30.13;;;19.47;;
20597;SDS011;10457;48.770;11.446;2023-04-07T03:24:35;30.77;;;18.33;;
20597;SDS011;10457;48.770;11.446;2023-04-07T03:29:58;26.00;;;17.87;;
20597;SDS011;10457;48.770;11.446;2023-04-07T03:35:21;26.20;;;17.17;;
20597;SDS011;10457;48.770;11.446;2023-04-07T03:40:44;24.20;;;17.20;;
20597;SDS011;10457;48.770;11.446;2023-04-07T03:46:07;26.13;;;15.90;;
20597;SDS011;10457;48.770;11.446;2023-04-07T03:51:28;23.30;;;15.40;;
20597;SDS011;10457;48.770;11.446;2023-04-07T03:56:52;19.63;;;13.47;;
20597;SDS011;10457;48.770;11.446;2023-04-07T04:02:16;20.43;;;13.17;;
20597;SDS011;10457;48.770;11.446;2023-04-07T04:07:42;19.63;;;12.37;;
20597;SDS011;10457;48.770;11.446;2023-04-07T04:13:05;27.90;;;15.23;;
20597;SDS011;10457;48.770;11.446;2023-04-07T04:18:27;24.87;;;14.53;;
20597;SDS011;10457;48.770;11.446;2023-04-07T04:23:50;18.80;;;13.77;;
20597;SDS011;10457;48.770;11.446;2023-04-07T04:29:13;23.47;;;15.90;;
20597;SDS011;10457;48.770;11.446;2023-04-07T04:34:36;20.87;;;14.67;;
20597;SDS011;10457;48.770;11.446;2023-04-07T04:40:01;24.13;;;16.33;;
20597;SDS011;10457;48.770;11.446;2023-04-07T04:45:28;24.13;;;16.73;;
20597;SDS011;10457;48.770;11.446;2023-04-07T04:50:50;29.20;;;18.67;;
20597;SDS011;10457;48.770;11.446;2023-04-07T04:56:13;26.10;;;17.47;;
20597;SDS011;10457;48.770;11.446;2023-04-07T05:01:40;25.23;;;16.03;;
20597;SDS011;10457;48.770;11.446;2023-04-07T05:07:05;23.10;;;15.47;;
20597;SDS011;10457;48.770;11.446;2023-04-07T05:12:26;22.77;;;14.83;;
20597;SDS011;10457;48.770;11.446;2023-04-07T05:17:54;20.00;;;15.20;;
20597;SDS011;10457;48.770;11.446;2023-04-07T05:23:19;20.77;;;14.83;;
20597;SDS011;10457;48.770;11.446;2023-04-07T05:28:43;18.87;;;12.97;;
20597;SDS011;10457;48.770;11.446;2023-04-07T05:34:11;21.47;;;14.43;;
20597;SDS011;10457;48.770;11.446;2023-04-07T05:39:38;20.13;;;13.63;;
20597;SDS011;10457;48.770;11.446;2023-04-07T05:45:02;19.90;;;13.77;;
20597;SDS011;10457;48.770;11.446;2023-04-07T05:50:27;18.40;;;13.27;;
20597;SDS011;10457;48.770;11.446;2023-04-07T05:55:52;22.73;;;13.30;;
20597;SDS011;10457;48.770;11.446;2023-04-07T06:01:43;16.80;;;12.83;;
20597;SDS011;10457;48.770;11.446;2023-04-07T06:07:06;19.17;;;15.10;;
20597;SDS011;10457;48.770;11.446;2023-04-07T06:12:27;19.60;;;12.67;;
20597;SDS011;10457;48.770;11.446;2023-04-07T06:17:49;20.80;;;14.70;;
20597;SDS011;10457;48.770;11.446;2023-04-07T06:23:12;18.83;;;12.03;;
20597;SDS011;10457;48.770;11.446;2023-04-07T06:28:33;25.57;;;12.73;;
20597;SDS011;10457;48.770;11.446;2023-04-07T06:33:55;18.30;;;12.27;;
20597;SDS011;10457;48.770;11.446;2023-04-07T06:39:18;19.17;;;13.37;;
20597;SDS011;10457;48.770;11.446;2023-04-07T06:44:40;17.87;;;11.93;;
20597;SDS011;10457;48.770;11.446;2023-04-07T06:50:01;18.90;;;13.00;;
20597;SDS011;10457;48.770;11.446;2023-04-07T06:55:25;18.77;;;12.87;;
20597;SDS011;10457;48.770;11.446;2023-04-07T07:00:46;20.80;;;14.33;;
20597;SDS011;10457;48.770;11.446;2023-04-07T07:06:07;20.87;;;14.63;;
20597;SDS011;10457;48.770;11.446;2023-04-07T07:11:31;20.07;;;13.33;;
20597;SDS011;10457;48.770;11.446;2023-04-07T07:16:53;22.30;;;14.30;;
20597;SDS011;10457;48.770;11.446;2023-04-07T07:22:14;19.57;;;13.67;;
20597;SDS011;10457;48.770;11.446;2023-04-07T07:27:37;18.27;;;13.20;;
20597;SDS011;10457;48.770;11.446;2023-04-07T07:32:58;18.40;;;13.67;;
20597;SDS011;10457;48.770;11.446;2023-04-07T07:38:20;18.93;;;13.37;;
20597;SDS011;10457;48.770;11.446;2023-04-07T07:43:43;18.73;;;12.10;;
20597;SDS011;10457;48.770;11.446;2023-04-07T07:49:05;16.13;;;11.00;;
20597;SDS011;10457;48.770;11.446;2023-04-07T07:54:27;15.63;;;10.27;;
20597;SDS011;10457;48.770;11.446;2023-04-07T07:59:50;14.17;;;10.87;;
20597;SDS011;10457;48.770;11.446;2023-04-07T08:05:11;14.97;;;10.33;;
20597;SDS011;10457;48.770;11.446;2023-04-07T08:10:33;16.67;;;9.97;;
20597;SDS011;10457;48.770;11.446;2023-04-07T08:15:56;11.30;;;8.87;;
20597;SDS011;10457;48.770;11.446;2023-04-07T08:21:17;13.93;;;9.83;;
20597;SDS011;10457;48.770;11.446;2023-04-07T08:26:39;13.70;;;9.53;;
20597;SDS011;10457;48.770;11.446;2023-04-07T08:32:02;12.67;;;8.83;;
20597;SDS011;10457;48.770;11.446;2023-04-07T08:37:24;15.83;;;9.73;;
20597;SDS011;10457;48.770;11.446;2023-04-07T08:42:46;14.67;;;9.17;;
20597;SDS011;10457;48.770;11.446;2023-04-07T08:48:10;12.80;;;9.10;;
20597;SDS011;10457;48.770;11.446;2023-04-07T08:53:39;12.52;;;9.73;;
20597;SDS011;10457;48.770;11.446;2023-04-07T08:59:09;13.40;;;10.07;;
20597;SDS011;10457;48.770;11.446;2023-04-07T09:04:34;12.15;;;9.77;;
20597;SDS011;10457;48.770;11.446;2023-04-07T09:09:55;11.80;;;8.55;;
20597;SDS011;10457;48.770;11.446;2023-04-07T09:15:17;15.13;;;9.73;;
20597;SDS011;10457;48.770;11.446;2023-04-07T09:20:56;14.38;;;9.80;;
20597;SDS011;10457;48.770;11.446;2023-04-07T09:26:20;11.88;;;9.25;;
20597;SDS011;10457;48.770;11.446;2023-04-07T09:31:44;12.70;;;9.85;;
20597;SDS011;10457;48.770;11.446;2023-04-07T09:37:10;16.02;;;9.90;;
20597;SDS011;10457;48.770;11.446;2023-04-07T09:42:45;12.90;;;10.18;;
20597;SDS011;10457;48.770;11.446;2023-04-07T09:48:07;16.37;;;10.23;;
20597;SDS011;10457;48.770;11.446;2023-04-07T09:53:46;14.32;;;9.65;;
20597;SDS011;10457;48.770;11.446;2023-04-07T09:59:11;13.48;;;10.18;;
20597;SDS011;10457;48.770;11.446;2023-04-07T10:04:33;11.93;;;9.77;;
20597;SDS011;10457;48.770;11.446;2023-04-07T10:09:57;13.52;;;9.93;;
20597;SDS011;10457;48.770;11.446;2023-04-07T10:15:18;17.15;;;10.77;;
20597;SDS011;10457;48.770;11.446;2023-04-07T10:20:41;11.45;;;9.07;;
20597;SDS011;10457;48.770;11.446;2023-04-07T10:26:04;12.93;;;9.80;;
20597;SDS011;10457;48.770;11.446;2023-04-07T10:31:27;11.85;;;8.90;;
20597;SDS011;10457;48.770;11.446;2023-04-07T10:42:45;10.20;;;8.85;;
20597;SDS011;10457;48.770;11.446;2023-04-07T10:48:10;9.32;;;8.20;;
20597;SDS011;10457;48.770;11.446;2023-04-07T10:53:34;8.07;;;7.28;;
20597;SDS011;10457;48.770;11.446;2023-04-07T11:04:37;10.05;;;9.05;;
20597;SDS011;10457;48.770;11.446;2023-04-07T11:10:07;11.85;;;9.77;;
20597;SDS011;10457;48.770;11.446;2023-04-07T11:15:31;11.20;;;8.43;;
20597;SDS011;10457;48.770;11.446;2023-04-07T11:20:54;9.52;;;8.02;;
20597;SDS011;10457;48.770;11.446;2023-04-07T11:26:17;10.23;;;8.38;;
20597;SDS011;10457;48.770;11.446;2023-04-07T11:31:42;10.80;;;8.80;;
20597;SDS011;10457;48.770;11.446;2023-04-07T11:37:17;12.95;;;8.95;;
20597;SDS011;10457;48.770;11.446;2023-04-07T11:42:40;13.80;;;9.75;;
20597;SDS011;10457;48.770;11.446;2023-04-07T11:48:03;11.45;;;9.38;;
20597;SDS011;10457;48.770;11.446;2023-04-07T11:53:25;14.93;;;9.63;;
20597;SDS011;10457;48.770;11.446;2023-04-07T11:58:47;13.13;;;9.48;;
20597;SDS011;10457;48.770;11.446;2023-04-07T12:04:12;12.23;;;8.52;;
20597;SDS011;10457;48.770;11.446;2023-04-07T12:09:34;10.20;;;7.68;;
20597;SDS011;10457;48.770;11.446;2023-04-07T12:14:56;12.57;;;8.90;;
20597;SDS011;10457;48.770;11.446;2023-04-07T12:20:19;10.03;;;8.27;;
20597;SDS011;10457;48.770;11.446;2023-04-07T12:25:41;12.82;;;8.60;;
20597;SDS011;10457;48.770;11.446;2023-04-07T12:31:02;14.10;;;8.67;;
20597;SDS011;10457;48.770;11.446;2023-04-07T12:36:26;12.30;;;8.93;;
20597;SDS011;10457;48.770;11.446;2023-04-07T12:41:47;14.47;;;9.83;;
20597;SDS011;10457;48.770;11.446;2023-04-07T12:47:11;13.27;;;9.52;;
20597;SDS011;10457;48.770;11.446;2023-04-07T12:52:34;15.13;;;10.52;;
20597;SDS011;10457;48.770;11.446;2023-04-07T12:57:55;11.05;;;8.80;;
20597;SDS011;10457;48.770;11.446;2023-04-07T13:03:17;11.35;;;9.18;;
20597;SDS011;10457;48.770;11.446;2023-04-07T13:08:40;11.07;;;8.35;;
20597;SDS011;10457;48.770;11.446;2023-04-07T13:14:01;10.35;;;8.48;;
20597;SDS011;10457;48.770;11.446;2023-04-07T13:19:23;10.30;;;8.25;;
20597;SDS011;10457;48.770;11.446;2023-04-07T13:24:46;10.43;;;6.78;;
20597;SDS011;10457;48.770;11.446;2023-04-07T13:30:07;8.38;;;6.07;;
20597;SDS011;10457;48.770;11.446;2023-04-07T13:35:29;7.50;;;6.50;;
20597;SDS011;10457;48.770;11.446;2023-04-07T13:40:55;5.88;;;5.28;;
20597;SDS011;10457;48.770;11.446;2023-04-07T13:46:17;8.60;;;5.97;;
20597;SDS011;10457;48.770;11.446;2023-04-07T13:51:38;7.93;;;5.70;;
20597;SDS011;10457;48.770;11.446;2023-04-07T13:57:02;7.35;;;6.35;;
20597;SDS011;10457;48.770;11.446;2023-04-07T14:02:24;8.65;;;7.18;;
20597;SDS011;10457;48.770;11.446;2023-04-07T14:07:46;6.88;;;5.07;;
20597;SDS011;10457;48.770;11.446;2023-04-07T14:13:09;7.50;;;5.25;;
20597;SDS011;10457;48.770;11.446;2023-04-07T14:18:30;5.30;;;4.78;;
20597;SDS011;10457;48.770;11.446;2023-04-07T14:23:52;6.95;;;5.10;;
20597;SDS011;10457;48.770;11.446;2023-04-07T14:29:15;6.53;;;5.32;;
20597;SDS011;10457;48.770;11.446;2023-04-07T14:34:37;5.20;;;4.55;;
20597;SDS011;10457;48.770;11.446;2023-04-07T14:39:58;5.75;;;5.07;;
20597;SDS011;10457;48.770;11.446;2023-04-07T14:45:22;5.53;;;4.73;;
20597;SDS011;10457;48.770;11.446;2023-04-07T14:50:43;7.15;;;5.00;;
20597;SDS011;10457;48.770;11.446;2023-04-07T14:56:05;7.25;;;5.90;;
20597;SDS011;10457;48.770;11.446;2023-04-07T15:01:28;7.65;;;5.82;;
20597;SDS011;10457;48.770;11.446;2023-04-07T15:06:49;5.97;;;5.20;;
20597;SDS011;10457;48.770;11.446;2023-04-07T15:12:11;5.95;;;5.30;;
20597;SDS011;10457;48.770;11.446;2023-04-07T15:17:34;6.68;;;4.47;;
20597;SDS011;10457;48.770;11.446;2023-04-07T15:22:55;6.07;;;5.30;;
20597;SDS011;10457;48.770;11.446;2023-04-07T15:28:18;6.43;;;5.53;;
20597;SDS011;10457;48.770;11.446;2023-04-07T15:33:41;5.25;;;4.75;;
20597;SDS011;10457;48.770;11.446;2023-04-07T15:39:04;6.22;;;5.03;;
20597;SDS011;10457;48.770;11.446;2023-04-07T15:44:26;5.90;;;5.25;;
20597;SDS011;10457;48.770;11.446;2023-04-07T15:49:49;5.18;;;4.20;;
20597;SDS011;10457;48.770;11.446;2023-04-07T15:55:10;6.88;;;5.03;;
20597;SDS011;10457;48.770;11.446;2023-04-07T16:00:32;6.55;;;4.50;;
20597;SDS011;10457;48.770;11.446;2023-04-07T16:05:56;7.63;;;4.75;;
20597;SDS011;10457;48.770;11.446;2023-04-07T16:11:18;6.80;;;5.30;;
20597;SDS011;10457;48.770;11.446;2023-04-07T16:16:40;5.60;;;4.90;;
20597;SDS011;10457;48.770;11.446;2023-04-07T16:22:04;6.73;;;4.57;;
20597;SDS011;10457;48.770;11.446;2023-04-07T16:27:25;5.70;;;4.47;;
20597;SDS011;10457;48.770;11.446;2023-04-07T16:32:47;7.03;;;5.30;;
20597;SDS011;10457;48.770;11.446;2023-04-07T16:38:10;6.60;;;5.03;;
20597;SDS011;10457;48.770;11.446;2023-04-07T16:43:32;6.33;;;5.33;;
20597;SDS011;10457;48.770;11.446;2023-04-07T16:48:54;7.07;;;5.53;;
20597;SDS011;10457;48.770;11.446;2023-04-07T16:54:17;8.07;;;5.60;;
20597;SDS011;10457;48.770;11.446;2023-04-07T16:59:38;6.80;;;4.93;;
20597;SDS011;10457;48.770;11.446;2023-04-07T17:05:00;7.30;;;4.77;;
20597;SDS011;10457;48.770;11.446;2023-04-07T17:10:23;10.23;;;6.17;;
20597;SDS011;10457;48.770;11.446;2023-04-07T17:15:44;7.73;;;6.00;;
20597;SDS011;10457;48.770;11.446;2023-04-07T17:21:06;10.17;;;5.93;;
20597;SDS011;10457;48.770;11.446;2023-04-07T17:26:29;9.27;;;6.40;;
20597;SDS011;10457;48.770;11.446;2023-04-07T17:31:50;11.23;;;6.53;;
20597;SDS011;10457;48.770;11.446;2023-04-07T17:37:12;9.70;;;6.67;;
20597;SDS011;10457;48.770;11.446;2023-04-07T17:42:35;8.23;;;5.90;;
20597;SDS011;10457;48.770;11.446;2023-04-07T17:47:57;8.93;;;6.77;;
20597;SDS011;10457;48.770;11.446;2023-04-07T17:53:21;10.17;;;7.80;;
20597;SDS011;10457;48.770;11.446;2023-04-07T17:58:44;11.43;;;7.53;;
20597;SDS011;10457;48.770;11.446;2023-04-07T18:04:06;11.00;;;7.00;;
20597;SDS011;10457;48.770;11.446;2023-04-07T18:09:27;11.77;;;7.97;;
20597;SDS011;10457;48.770;11.446;2023-04-07T18:14:50;10.10;;;7.60;;
20597;SDS011;10457;48.770;11.446;2023-04-07T18:20:12;13.67;;;8.90;;
20597;SDS011;10457;48.770;11.446;2023-04-07T18:25:33;11.30;;;8.53;;
20597;SDS011;10457;48.770;11.446;2023-04-07T18:30:59;14.57;;;9.40;;
20597;SDS011;10457;48.770;11.446;2023-04-07T18:36:23;15.00;;;9.13;;
20597;SDS011;10457;48.770;11.446;2023-04-07T18:41:45;15.33;;;8.30;;
20597;SDS011;10457;48.770;11.446;2023-04-07T18:47:08;10.97;;;8.23;;
20597;SDS011;10457;48.770;11.446;2023-04-07T18:52:30;9.80;;;8.30;;
20597;SDS011;10457;48.770;11.446;2023-04-07T18:57:51;10.97;;;8.33;;
20597;SDS011;10457;48.770;11.446;2023-04-07T19:03:14;12.77;;;9.73;;
20597;SDS011;10457;48.770;11.446;2023-04-07T19:08:35;15.33;;;9.70;;
20597;SDS011;10457;48.770;11.446;2023-04-07T19:13:57;13.63;;;9.80;;
20597;SDS011;10457;48.770;11.446;2023-04-07T19:19:20;10.53;;;8.40;;
20597;SDS011;10457;48.770;11.446;2023-04-07T19:24:41;12.73;;;7.43;;
20597;SDS011;10457;48.770;11.446;2023-04-07T19:30:03;13.00;;;8.23;;
20597;SDS011;10457;48.770;11.446;2023-04-07T19:35:27;12.63;;;8.30;;
20597;SDS011;10457;48.770;11.446;2023-04-07T19:40:48;11.20;;;7.70;;
20597;SDS011;10457;48.770;11.446;2023-04-07T19:46:10;10.20;;;7.30;;
20597;SDS011;10457;48.770;11.446;2023-04-07T19:51:33;9.20;;;7.10;;
20597;SDS011;10457;48.770;11.446;2023-04-07T19:56:54;13.23;;;7.53;;
20597;SDS011;10457;48.770;11.446;2023-04-07T20:02:16;9.27;;;6.97;;
20597;SDS011;10457;48.770;11.446;2023-04-07T20:07:39;9.07;;;6.87;;
20597;SDS011;10457;48.770;11.446;2023-04-07T20:13:01;10.77;;;6.50;;
20597;SDS011;10457;48.770;11.446;2023-04-07T20:18:22;8.00;;;6.70;;
20597;SDS011;10457;48.770;11.446;2023-04-07T20:23:47;10.97;;;6.87;;
20597;SDS011;10457;48.770;11.446;2023-04-07T20:29:09;10.47;;;7.17;;
20597;SDS011;10457;48.770;11.446;2023-04-07T20:34:31;11.57;;;7.50;;
20597;SDS011;10457;48.770;11.446;2023-04-07T20:39:54;11.93;;;8.83;;
20597;SDS011;10457;48.770;11.446;2023-04-07T20:45:15;14.20;;;10.47;;
20597;SDS011;10457;48.770;11.446;2023-04-07T20:50:37;13.07;;;9.60;;
20597;SDS011;10457;48.770;11.446;2023-04-07T20:55:59;14.57;;;9.30;;
20597;SDS011;10457;48.770;11.446;2023-04-07T21:01:21;12.40;;;10.03;;
20597;SDS011;10457;48.770;11.446;2023-04-07T21:06:43;20.50;;;13.30;;
20597;SDS011;10457;48.770;11.446;2023-04-07T21:12:06;21.83;;;11.43;;
20597;SDS011;10457;48.770;11.446;2023-04-07T21:17:27;11.70;;;9.33;;
20597;SDS011;10457;48.770;11.446;2023-04-07T21:22:49;16.27;;;9.40;;
20597;SDS011;10457;48.770;11.446;2023-04-07T21:28:12;18.73;;;10.40;;
20597;SDS011;10457;48.770;11.446;2023-04-07T21:33:34;15.47;;;9.43;;
20597;SDS011;10457;48.770;11.446;2023-04-07T21:38:57;15.93;;;9.93;;
20597;SDS011;10457;48.770;11.446;2023-04-07T21:44:20;12.97;;;8.77;;
20597;SDS011;10457;48.770;11.446;2023-04-07T21:49:41;11.70;;;8.13;;
20597;SDS011;10457;48.770;11.446;2023-04-07T21:55:03;13.23;;;8.60;;
20597;SDS011;10457;48.770;11.446;2023-04-07T22:00:27;12.77;;;9.40;;
20597;SDS011;10457;48.770;11.446;2023-04-07T22:05:49;15.40;;;9.80;;
20597;SDS011;10457;48.770;11.446;2023-04-07T22:11:11;14.70;;;10.10;;
20597;SDS011;10457;48.770;11.446;2023-04-07T22:16:34;14.70;;;9.67;;
20597;SDS011;10457;48.770;11.446;2023-04-07T22:21:55;10.93;;;8.43;;
20597;SDS011;10457;48.770;11.446;2023-04-07T22:27:16;14.57;;;9.83;;
20597;SDS011;10457;48.770;11.446;2023-04-07T22:32:39;11.50;;;8.70;;
20597;SDS011;10457;48.770;11.446;2023-04-07T22:38:01;13.37;;;8.30;;
20597;SDS011;10457;48.770;11.446;2023-04-07T22:43:22;12.83;;;9.20;;
20597;SDS011;10457;48.770;11.446;2023-04-07T22:48:45;11.60;;;8.63;;
20597;SDS011;10457;48.770;11.446;2023-04-07T22:54:07;12.57;;;7.90;;
20597;SDS011;10457;48.770;11.446;2023-04-07T22:59:29;11.37;;;8.10;;
20597;SDS011;10457;48.770;11.446;2023-04-07T23:04:52;13.63;;;8.63;;
20597;SDS011;10457;48.770;11.446;2023-04-07T23:10:13;15.30;;;8.90;;
20597;SDS011;10457;48.770;11.446;2023-04-07T23:15:35;12.37;;;8.40;;
20597;SDS011;10457;48.770;11.446;2023-04-07T23:20:58;13.10;;;8.50;;
20597;SDS011;10457;48.770;11.446;2023-04-07T23:26:19;10.07;;;7.63;;
20597;SDS011;10457;48.770;11.446;2023-04-07T23:31:40;13.57;;;9.60;;
20597;SDS011;10457;48.770;11.446;2023-04-07T23:37:03;15.97;;;9.00;;
20597;SDS011;10457;48.770;11.446;2023-04-07T23:42:25;11.97;;;8.33;;
20597;SDS011;10457;48.770;11.446;2023-04-07T23:47:47;11.97;;;8.40;;
20597;SDS011;10457;48.770;11.446;2023-04-07T23:53:09;14.77;;;9.43;;
20597;SDS011;10457;48.770;11.446;2023-04-07T23:58:31;15.83;;;9.67;;
